createdAt,value
2023-06-16T00:01:24.630Z,60.50
2023-06-16T00:03:52.985Z,60.80
2023-06-16T00:06:28.797Z,60.60
2023-06-16T00:08:57.486Z,60.70
2023-06-16T00:11:28.599Z,59.10
2023-06-16T00:13:59.504Z,59.50
2023-06-16T00:16:30.954Z,61.10
2023-06-16T00:19:02.234Z,61.30
2023-06-16T00:21:39.026Z,61.30
2023-06-16T00:24:08.475Z,60.90
2023-06-16T00:26:36.976Z,59.80
2023-06-16T00:29:05.839Z,60.60
2023-06-16T00:31:36.884Z,59.10
2023-06-16T00:34:08.411Z,59.70
2023-06-16T00:36:37.662Z,61.40
2023-06-16T00:39:08.845Z,61.40
2023-06-16T00:41:39.622Z,59.70
2023-06-16T00:44:07.531Z,60.20
2023-06-16T00:46:38.927Z,60.80
2023-06-16T00:49:07.358Z,60.20
2023-06-16T00:51:43.158Z,60.20
2023-06-16T00:54:14.756Z,61.10
2023-06-16T00:56:46.183Z,60.90
2023-06-16T00:59:16.965Z,60.50
2023-06-16T01:01:45.439Z,59.50
2023-06-16T01:04:16.422Z,60.90
2023-06-16T01:06:58.875Z,61.00
2023-06-16T01:09:56.941Z,61.00
2023-06-16T01:12:33.917Z,61.60
2023-06-16T01:15:05.901Z,61.90
2023-06-16T01:17:44.880Z,61.30
2023-06-16T01:20:16.693Z,61.60
2023-06-16T01:23:00.286Z,62.00
2023-06-16T01:25:35.158Z,61.70
2023-06-16T01:28:06.438Z,62.30
2023-06-16T01:30:43.470Z,61.90
2023-06-16T01:33:16.467Z,62.30
2023-06-16T01:35:46.101Z,62.50
2023-06-16T01:38:14.237Z,62.50
2023-06-16T01:44:32.676Z,62.20
2023-06-16T01:47:00.669Z,62.20
2023-06-16T01:49:31.909Z,62.40
2023-06-16T01:52:07.214Z,61.90
2023-06-16T01:54:38.225Z,61.30
2023-06-16T01:57:12.610Z,60.20
2023-06-16T01:59:41.917Z,60.90
2023-06-16T02:02:20.776Z,61.20
2023-06-16T02:04:53.769Z,61.10
2023-06-16T02:07:26.950Z,60.90
2023-06-16T02:09:55.704Z,62.10
2023-06-16T02:12:23.819Z,62.80
2023-06-16T02:14:53.448Z,63.00
2023-06-16T02:17:28.269Z,63.40
2023-06-16T02:20:00.106Z,64.00
2023-06-16T02:22:28.052Z,63.40
2023-06-16T02:24:56.076Z,63.90
2023-06-16T02:27:24.062Z,63.40
2023-06-16T02:29:53.330Z,62.30
2023-06-16T02:32:21.266Z,61.10
2023-06-16T02:34:57.145Z,61.40
2023-06-16T02:37:28.487Z,62.00
2023-06-16T02:39:56.449Z,62.50
2023-06-16T02:42:24.390Z,62.20
2023-06-16T02:44:53.646Z,61.50
2023-06-16T02:47:21.596Z,63.10
2023-06-16T02:49:56.170Z,63.20
2023-06-16T02:52:26.535Z,63.10
2023-06-16T02:55:01.960Z,62.20
2023-06-16T02:57:29.940Z,62.60
2023-06-16T03:00:00.047Z,62.70
2023-06-16T03:02:30.903Z,62.20
2023-06-16T03:05:06.265Z,62.60
2023-06-16T03:07:37.433Z,63.20
2023-06-16T03:10:07.395Z,63.80
2023-06-16T03:12:35.386Z,65.10
2023-06-16T03:15:06.225Z,64.90
2023-06-16T03:17:34.416Z,64.10
2023-06-16T03:20:07.023Z,63.90
2023-06-16T03:22:34.960Z,62.70
2023-06-16T03:25:05.183Z,61.00
2023-06-16T03:27:33.195Z,62.50
2023-06-16T03:30:01.444Z,62.90
2023-06-16T03:32:34.705Z,63.00
2023-06-16T03:35:09.200Z,62.90
2023-06-16T03:37:42.896Z,63.10
2023-06-16T03:40:11.437Z,63.40
2023-06-16T03:42:39.392Z,64.20
2023-06-16T03:45:08.656Z,64.60
2023-06-16T03:47:38.016Z,63.50
2023-06-16T03:50:06.561Z,63.50
2023-06-16T03:52:37.347Z,64.00
2023-06-16T03:55:06.687Z,65.40
2023-06-16T03:57:37.648Z,65.30
2023-06-16T04:00:09.352Z,65.80
2023-06-16T04:02:44.527Z,65.50
2023-06-16T04:05:15.495Z,65.50
2023-06-16T04:07:45.722Z,64.90
2023-06-16T04:10:16.926Z,65.00
2023-06-16T04:12:45.216Z,64.10
2023-06-16T04:15:13.471Z,63.70
2023-06-16T04:17:41.500Z,64.90
2023-06-16T04:20:12.535Z,65.30
2023-06-16T04:22:41.486Z,65.60
2023-06-16T04:25:10.640Z,65.40
2023-06-16T04:27:47.616Z,65.70
2023-06-16T04:30:15.685Z,66.00
2023-06-16T04:32:46.820Z,66.00
2023-06-16T04:35:28.265Z,65.70
2023-06-16T04:37:58.095Z,65.90
2023-06-16T04:40:26.065Z,66.20
2023-06-16T04:42:54.136Z,66.20
2023-06-16T04:45:39.927Z,66.00
2023-06-16T04:48:10.982Z,65.80
2023-06-16T04:50:40.361Z,65.70
2023-06-16T04:53:14.360Z,66.00
2023-06-16T04:55:42.338Z,65.90
2023-06-16T04:58:12.388Z,65.90
2023-06-16T05:00:42.441Z,65.70
2023-06-16T05:03:10.363Z,65.70
2023-06-16T05:05:42.480Z,65.70
2023-06-16T05:08:10.678Z,65.70
2023-06-16T05:10:38.613Z,65.80
2023-06-16T05:13:06.518Z,65.60
2023-06-16T05:15:35.724Z,65.60
2023-06-16T05:18:03.708Z,65.50
2023-06-16T05:20:33.220Z,65.10
2023-06-16T05:23:04.513Z,65.00
2023-06-16T05:25:35.774Z,64.90
2023-06-16T05:28:03.782Z,64.80
2023-06-16T05:30:38.948Z,64.80
2023-06-16T05:33:07.161Z,64.50
2023-06-16T05:35:40.278Z,64.40
2023-06-16T05:38:09.568Z,64.40
2023-06-16T05:40:37.462Z,64.40
2023-06-16T05:43:07.989Z,64.30
2023-06-16T05:45:36.114Z,64.20
2023-06-16T05:48:09.234Z,64.20
2023-06-16T05:50:37.210Z,64.20
2023-06-16T05:53:05.566Z,61.20
2023-06-16T05:55:34.814Z,62.90
2023-06-16T05:58:02.961Z,63.90
2023-06-16T06:00:31.106Z,63.90
2023-06-16T06:02:59.284Z,60.00
2023-06-16T06:05:27.526Z,60.10
2023-06-16T06:07:55.524Z,63.50
2023-06-16T06:10:25.983Z,59.00
2023-06-16T06:12:55.725Z,62.80
2023-06-16T06:15:23.664Z,63.10
2023-06-16T06:17:55.378Z,63.00
2023-06-16T06:20:23.580Z,59.40
2023-06-16T06:22:54.359Z,62.00
2023-06-16T06:25:30.090Z,62.30
2023-06-16T06:28:02.539Z,62.30
2023-06-16T06:30:30.568Z,60.70
2023-06-16T06:32:59.141Z,62.00
2023-06-16T06:35:33.037Z,61.40
2023-06-16T06:38:06.790Z,58.60
2023-06-16T06:40:37.766Z,61.40
2023-06-16T06:43:07.092Z,61.50
2023-06-16T06:45:35.023Z,61.70
2023-06-16T06:48:03.001Z,61.60
2023-06-16T06:50:36.848Z,61.70
2023-06-16T06:53:13.489Z,62.40
2023-06-16T06:55:41.393Z,61.60
2023-06-16T06:58:11.156Z,61.60
2023-06-16T07:00:39.079Z,61.80
2023-06-16T07:03:07.345Z,61.90
2023-06-16T07:05:38.341Z,61.90
2023-06-16T07:08:12.670Z,61.90
2023-06-16T07:10:40.593Z,60.80
2023-06-16T07:13:09.876Z,58.70
2023-06-16T07:15:40.817Z,59.80
2023-06-16T07:18:08.861Z,57.00
2023-06-16T07:20:36.844Z,55.00
2023-06-16T07:23:04.817Z,59.90
2023-06-16T07:25:37.304Z,58.20
2023-06-16T07:28:05.859Z,59.60
2023-06-16T07:30:38.268Z,59.50
2023-06-16T07:33:06.188Z,59.40
2023-06-16T07:35:40.030Z,59.30
2023-06-16T07:38:07.966Z,59.00
2023-06-16T07:40:41.688Z,58.70
2023-06-16T07:43:15.861Z,55.80
2023-06-16T07:45:48.017Z,57.10
2023-06-16T07:48:16.476Z,56.00
2023-06-16T07:50:44.496Z,55.10
2023-06-16T07:53:15.309Z,52.80
2023-06-16T07:55:46.342Z,52.50
2023-06-16T07:58:14.310Z,54.40
2023-06-16T08:00:42.418Z,53.00
2023-06-16T08:03:14.721Z,52.20
2023-06-16T08:05:42.799Z,54.80
2023-06-16T08:08:13.773Z,53.40
2023-06-16T08:10:45.132Z,53.50
2023-06-16T08:13:13.138Z,47.70
2023-06-16T08:15:41.146Z,47.50
2023-06-16T08:18:14.497Z,45.60
2023-06-16T08:20:46.526Z,45.50
2023-06-16T08:23:15.674Z,48.20
2023-06-16T08:25:48.981Z,51.80
2023-06-16T08:28:17.022Z,51.10
2023-06-16T08:30:45.035Z,51.50
2023-06-16T08:33:13.218Z,48.90
2023-06-16T08:35:41.312Z,51.70
2023-06-16T08:38:10.609Z,52.40
2023-06-16T08:40:39.563Z,50.30
2023-06-16T08:43:11.309Z,51.90
2023-06-16T08:45:42.356Z,52.00
2023-06-16T08:48:11.843Z,45.90
2023-06-16T08:50:43.222Z,45.10
2023-06-16T08:53:13.788Z,45.00
2023-06-16T08:55:43.372Z,49.50
2023-06-16T08:58:12.678Z,49.20
2023-06-16T09:00:42.676Z,50.00
2023-06-16T09:03:21.187Z,45.70
2023-06-16T09:05:50.004Z,47.80
2023-06-16T09:08:19.396Z,45.60
2023-06-16T09:10:50.858Z,46.40
2023-06-16T09:13:21.917Z,49.00
2023-06-16T09:16:00.671Z,43.90
2023-06-16T09:18:41.325Z,47.20
2023-06-16T09:21:10.209Z,44.10
2023-06-16T09:23:40.278Z,44.50
2023-06-16T09:26:25.830Z,45.50
2023-06-16T09:28:53.878Z,47.00
2023-06-16T09:31:25.547Z,47.50
2023-06-16T09:34:06.833Z,47.10
2023-06-16T09:36:34.898Z,46.70
2023-06-16T09:39:08.274Z,47.30
2023-06-16T09:41:37.564Z,49.10
2023-06-16T09:44:05.914Z,48.10
2023-06-16T09:46:33.899Z,47.40
2023-06-16T09:49:01.810Z,49.40
2023-06-16T09:51:32.523Z,49.50
2023-06-16T09:54:01.084Z,50.70
2023-06-16T09:56:34.540Z,50.30
2023-06-16T09:59:02.564Z,50.70
2023-06-16T10:01:34.448Z,48.00
2023-06-16T10:04:05.846Z,47.70
2023-06-16T10:06:39.694Z,47.00
2023-06-16T10:09:09.850Z,47.60
2023-06-16T10:11:40.863Z,47.00
2023-06-16T10:14:11.008Z,46.80
2023-06-16T10:16:40.174Z,46.30
2023-06-16T10:19:09.914Z,46.90
2023-06-16T10:21:38.375Z,47.40
2023-06-16T10:24:07.461Z,47.20
2023-06-16T10:26:40.037Z,48.40
2023-06-16T10:29:08.648Z,47.80
2023-06-16T10:31:37.576Z,46.60
2023-06-16T10:34:06.721Z,45.40
2023-06-16T10:36:37.250Z,48.80
2023-06-16T10:39:13.767Z,45.30
2023-06-16T10:41:55.105Z,45.50
2023-06-16T10:44:30.381Z,47.40
2023-06-16T10:47:31.891Z,45.60
2023-06-16T10:50:03.290Z,47.40
2023-06-16T10:52:51.304Z,47.10
2023-06-16T10:55:36.782Z,49.60
2023-06-16T10:58:27.632Z,50.10
2023-06-16T11:01:07.889Z,46.50
2023-06-16T11:03:40.385Z,45.20
2023-06-16T11:06:11.397Z,48.90
2023-06-16T11:08:51.659Z,47.90
2023-06-16T11:11:19.692Z,52.30
2023-06-16T11:13:55.393Z,45.90
2023-06-16T11:16:23.437Z,46.70
2023-06-16T11:18:53.052Z,46.70
2023-06-16T11:21:27.178Z,47.70
2023-06-16T11:24:13.897Z,44.60
2023-06-16T11:26:42.786Z,45.50
2023-06-16T11:29:12.272Z,46.60
2023-06-16T11:31:43.515Z,47.20
2023-06-16T11:34:11.505Z,48.70
2023-06-16T11:36:39.426Z,49.90
2023-06-16T11:39:12.787Z,50.10
2023-06-16T11:41:44.759Z,51.10
2023-06-16T11:44:29.836Z,48.00
2023-06-16T11:46:57.850Z,50.00
2023-06-16T11:49:33.124Z,46.60
2023-06-16T11:52:03.242Z,45.40
2023-06-16T11:54:31.440Z,45.00
2023-06-16T11:57:00.360Z,45.80
2023-06-16T11:59:31.994Z,45.60
2023-06-16T12:02:03.736Z,49.20
2023-06-16T12:04:32.754Z,45.40
2023-06-16T12:07:01.974Z,51.50
2023-06-16T12:09:38.155Z,47.70
2023-06-16T12:12:07.025Z,45.40
2023-06-16T12:14:38.751Z,47.40
2023-06-16T12:17:07.482Z,45.00
2023-06-16T12:19:40.894Z,44.50
2023-06-16T12:22:09.833Z,47.30
2023-06-16T12:24:40.716Z,47.10
2023-06-16T12:27:11.502Z,47.40
2023-06-16T12:29:40.814Z,50.00
2023-06-16T12:32:09.365Z,45.80
2023-06-16T12:34:37.581Z,45.60
2023-06-16T12:37:07.890Z,43.20
2023-06-16T12:39:36.586Z,46.60
2023-06-16T12:42:06.433Z,45.80
2023-06-16T12:44:46.381Z,48.20
2023-06-16T12:47:19.248Z,48.30
2023-06-16T12:49:47.233Z,48.60
2023-06-16T12:52:16.844Z,47.80
2023-06-16T12:54:47.888Z,46.70
2023-06-16T12:57:22.943Z,43.90
2023-06-16T12:59:53.090Z,44.60
2023-06-16T13:02:21.432Z,46.00
2023-06-16T13:04:49.917Z,47.10
2023-06-16T13:07:18.168Z,46.10
2023-06-16T13:09:49.598Z,47.50
2023-06-16T13:12:20.626Z,48.60
2023-06-16T13:14:48.544Z,46.50
2023-06-16T13:17:23.895Z,49.40
2023-06-16T13:19:57.431Z,47.70
2023-06-16T13:22:28.435Z,48.00
2023-06-16T13:24:56.357Z,48.00
2023-06-16T13:27:24.266Z,43.40
2023-06-16T13:29:52.180Z,45.30
2023-06-16T13:32:27.808Z,45.10
2023-06-16T13:34:55.756Z,45.40
2023-06-16T13:37:26.428Z,46.00
2023-06-16T13:39:58.621Z,46.10
2023-06-16T13:42:26.778Z,44.90
2023-06-16T13:44:54.749Z,45.60
2023-06-16T13:47:22.678Z,48.20
2023-06-16T13:49:51.952Z,49.30
2023-06-16T13:52:19.884Z,49.50
2023-06-16T13:54:50.320Z,48.00
2023-06-16T13:57:18.847Z,48.40
2023-06-16T13:59:46.769Z,45.20
2023-06-16T14:02:14.713Z,44.60
2023-06-16T14:04:42.662Z,45.20
2023-06-16T14:07:11.920Z,44.90
2023-06-16T14:09:39.852Z,46.30
2023-06-16T14:12:09.342Z,46.00
2023-06-16T14:14:37.267Z,45.50
2023-06-16T14:17:14.293Z,45.80
2023-06-16T14:19:42.211Z,48.60
2023-06-16T14:22:11.555Z,46.90
2023-06-16T14:24:42.535Z,47.20
2023-06-16T14:27:10.819Z,44.80
2023-06-16T14:29:46.108Z,48.20
2023-06-16T14:32:17.187Z,47.60
2023-06-16T14:34:51.292Z,47.90
2023-06-16T14:37:20.613Z,47.70
2023-06-16T14:39:48.511Z,44.50
2023-06-16T14:42:16.397Z,46.30
2023-06-16T14:44:44.350Z,44.80
2023-06-16T14:47:12.580Z,45.90
2023-06-16T14:49:40.840Z,45.30
2023-06-16T14:52:09.006Z,44.50
2023-06-16T14:54:38.285Z,44.40
2023-06-16T14:57:10.621Z,43.90
2023-06-16T14:59:38.566Z,45.00
2023-06-16T15:02:09.340Z,46.20
2023-06-16T15:04:37.356Z,45.00
2023-06-16T15:07:07.239Z,48.20
2023-06-16T15:09:35.164Z,44.60
2023-06-16T15:12:05.044Z,44.80
2023-06-16T15:14:32.951Z,48.10
2023-06-16T15:17:00.890Z,45.80
2023-06-16T15:19:28.799Z,44.70
2023-06-16T15:21:56.977Z,45.30
2023-06-16T15:24:27.776Z,46.00
2023-06-16T15:26:55.851Z,45.50
2023-06-16T15:29:25.869Z,45.00
2023-06-16T15:31:54.170Z,45.30
2023-06-16T15:34:23.036Z,46.30
2023-06-16T15:36:50.960Z,45.10
2023-06-16T15:39:19.707Z,45.20
2023-06-16T15:41:47.774Z,46.00
2023-06-16T15:44:15.721Z,47.20
2023-06-16T15:46:45.067Z,47.60
2023-06-16T15:49:13.181Z,45.50
2023-06-16T15:51:41.781Z,47.10
2023-06-16T15:54:10.248Z,45.70
2023-06-16T15:56:38.216Z,46.00
2023-06-16T15:59:07.072Z,45.40
2023-06-16T16:01:35.150Z,45.70
2023-06-16T16:04:04.708Z,46.90
2023-06-16T16:06:32.730Z,46.00
2023-06-16T16:09:00.716Z,48.00
2023-06-16T16:11:28.891Z,47.30
2023-06-16T16:13:59.896Z,48.50
2023-06-16T16:16:27.899Z,47.00
2023-06-16T16:18:55.920Z,44.20
2023-06-16T16:21:25.208Z,44.10
2023-06-16T16:23:53.238Z,46.50
2023-06-16T16:26:21.190Z,49.10
2023-06-16T16:28:52.255Z,46.00
2023-06-16T16:31:20.416Z,44.80
2023-06-16T16:33:48.374Z,46.80
2023-06-16T16:36:17.875Z,46.80
2023-06-16T16:38:56.328Z,46.20
2023-06-16T16:41:24.423Z,46.60
2023-06-16T16:43:52.414Z,47.60
2023-06-16T16:46:23.150Z,47.20
2023-06-16T16:48:51.614Z,45.30
2023-06-16T16:51:27.087Z,46.30
2023-06-16T16:53:56.452Z,45.10
2023-06-16T16:56:24.348Z,47.60
2023-06-16T16:58:52.386Z,47.30
2023-06-16T17:01:22.873Z,47.10
2023-06-16T17:03:53.834Z,47.50
2023-06-16T17:06:27.054Z,46.60
2023-06-16T17:08:59.459Z,48.20
2023-06-16T17:11:30.394Z,48.40
2023-06-16T17:13:58.335Z,48.70
2023-06-16T17:16:29.104Z,48.00
2023-06-16T17:18:57.013Z,48.20
2023-06-16T17:21:25.005Z,46.00
2023-06-16T17:23:53.329Z,47.10
2023-06-16T17:26:22.706Z,46.20
2023-06-16T17:28:50.796Z,47.80
2023-06-16T17:31:18.685Z,47.80
2023-06-16T17:33:46.750Z,48.80
2023-06-16T17:36:15.420Z,48.70
2023-06-16T17:38:43.395Z,48.80
2023-06-16T17:41:11.538Z,46.60
2023-06-16T17:43:40.757Z,47.50
2023-06-16T17:46:08.668Z,48.80
2023-06-16T17:48:36.561Z,50.80
2023-06-16T17:51:04.560Z,48.60
2023-06-16T17:53:34.586Z,48.70
2023-06-16T17:56:05.157Z,50.30
2023-06-16T17:58:36.287Z,52.80
2023-06-16T18:01:05.719Z,52.10
2023-06-16T18:03:42.729Z,51.10
2023-06-16T18:06:13.466Z,51.50
2023-06-16T18:08:41.364Z,50.60
2023-06-16T18:11:12.124Z,50.40
2023-06-16T18:13:47.488Z,50.20
2023-06-16T18:16:16.831Z,50.40
2023-06-16T18:18:44.861Z,48.20
2023-06-16T18:21:12.863Z,46.50
2023-06-16T18:23:52.099Z,47.60
2023-06-16T18:26:26.542Z,50.40
2023-06-16T18:28:54.460Z,47.90
2023-06-16T18:31:23.682Z,48.40
2023-06-16T18:33:51.961Z,49.20
2023-06-16T18:36:22.247Z,48.30
2023-06-16T18:39:08.839Z,48.10
2023-06-16T18:41:36.743Z,50.40
2023-06-16T18:44:10.608Z,49.30
2023-06-16T18:46:40.330Z,45.80
2023-06-16T18:49:08.347Z,49.50
2023-06-16T18:51:37.586Z,47.70
2023-06-16T18:54:05.759Z,49.20
2023-06-16T18:56:47.343Z,49.50
2023-06-16T18:59:15.459Z,49.80
2023-06-16T19:01:45.419Z,49.50
2023-06-16T19:04:13.773Z,48.40
2023-06-16T19:06:41.751Z,49.40
2023-06-16T19:09:12.734Z,46.70
2023-06-16T19:11:40.601Z,46.20
2023-06-16T19:14:08.471Z,46.80
2023-06-16T19:16:36.498Z,46.80
2023-06-16T19:19:11.796Z,47.70
2023-06-16T19:21:39.690Z,49.60
2023-06-16T19:24:09.796Z,50.70
2023-06-16T19:26:37.786Z,49.20
2023-06-16T19:29:05.821Z,51.50
2023-06-16T19:31:33.864Z,52.40
2023-06-16T19:34:01.856Z,50.60
2023-06-16T19:36:34.061Z,49.50
2023-06-16T19:39:05.070Z,51.90
2023-06-16T19:41:36.084Z,49.40
2023-06-16T19:44:04.037Z,50.80
2023-06-16T19:46:31.981Z,52.20
2023-06-16T19:49:14.299Z,51.80
2023-06-16T19:51:46.640Z,52.00
2023-06-16T19:54:21.948Z,51.70
2023-06-16T19:56:50.180Z,49.60
2023-06-16T19:59:18.067Z,51.80
2023-06-16T20:01:51.887Z,52.10
2023-06-16T20:04:25.601Z,52.10
2023-06-16T20:06:54.887Z,52.50
2023-06-16T20:09:31.787Z,52.50
2023-06-16T20:11:59.688Z,52.60
2023-06-16T20:14:30.583Z,52.70
2023-06-16T20:17:01.720Z,52.70
2023-06-16T20:19:33.493Z,52.70
2023-06-16T20:22:02.984Z,52.70
2023-06-16T20:24:38.335Z,51.00
2023-06-16T20:27:06.848Z,52.70
2023-06-16T20:29:43.637Z,53.00
2023-06-16T20:32:16.910Z,51.90
2023-06-16T20:34:47.986Z,53.20
2023-06-16T20:37:20.094Z,53.40
2023-06-16T20:39:47.991Z,53.40
2023-06-16T20:42:16.290Z,53.50
2023-06-16T20:44:47.313Z,53.50
2023-06-16T20:47:17.465Z,53.40
2023-06-16T20:49:45.348Z,54.20
2023-06-16T20:52:15.553Z,53.60
2023-06-16T20:54:52.729Z,53.70
2023-06-16T20:57:24.154Z,53.70
2023-06-16T20:59:52.200Z,53.70
2023-06-16T21:02:21.216Z,53.80
2023-06-16T21:04:55.776Z,53.90
2023-06-16T21:07:31.237Z,53.90
2023-06-16T21:10:00.658Z,53.70
2023-06-16T21:12:34.414Z,54.00
2023-06-16T21:15:08.016Z,54.10
2023-06-16T21:17:41.656Z,54.10
2023-06-16T21:20:10.729Z,54.20
2023-06-16T21:22:41.984Z,54.20
2023-06-16T21:25:11.346Z,54.20
2023-06-16T21:27:39.233Z,54.10
2023-06-16T21:30:11.013Z,54.30
2023-06-16T21:32:42.032Z,53.80
2023-06-16T21:35:19.017Z,54.20
2023-06-16T21:37:51.742Z,54.30
2023-06-16T21:40:21.506Z,54.30
2023-06-16T21:42:55.543Z,54.40
2023-06-16T21:45:23.723Z,54.50
2023-06-16T21:47:52.116Z,54.40
2023-06-16T21:50:23.153Z,54.50
2023-06-16T21:52:57.125Z,54.60
2023-06-16T21:55:31.523Z,54.60
2023-06-16T21:58:02.277Z,54.60
2023-06-16T22:00:30.269Z,54.60
2023-06-16T22:05:53.614Z,54.70
2023-06-16T22:08:24.457Z,54.80
2023-06-16T22:10:53.689Z,54.80
2023-06-16T22:13:30.864Z,54.90
2023-06-16T22:16:01.925Z,54.90
2023-06-16T22:18:30.435Z,54.90
2023-06-16T22:21:00.152Z,55.00
2023-06-16T22:23:28.369Z,55.00
2023-06-16T22:25:57.695Z,55.10
2023-06-16T22:28:25.670Z,55.10
2023-06-16T22:30:58.719Z,55.20
2023-06-16T22:33:27.069Z,55.30
2023-06-16T22:36:03.872Z,55.30
2023-06-16T22:38:31.728Z,55.50
2023-06-16T22:41:01.238Z,55.50
2023-06-16T22:43:29.115Z,55.60
2023-06-16T22:46:02.941Z,55.60
2023-06-16T22:48:32.187Z,55.60
2023-06-16T22:51:00.070Z,55.20
2023-06-16T22:53:27.952Z,55.60
2023-06-16T22:55:55.826Z,55.90
2023-06-16T22:58:31.315Z,55.90
2023-06-16T23:01:02.320Z,56.00
2023-06-16T23:03:30.416Z,56.00
2023-06-16T23:06:04.342Z,56.00
2023-06-16T23:08:32.246Z,56.10
2023-06-16T23:11:00.166Z,56.30
2023-06-16T23:16:14.049Z,56.00
2023-06-16T23:18:42.226Z,56.20
2023-06-16T23:21:10.199Z,56.80
2023-06-16T23:23:40.891Z,55.50
2023-06-16T23:26:08.765Z,56.90
2023-06-16T23:28:44.179Z,56.60
2023-06-16T23:31:19.684Z,57.10
2023-06-16T23:33:51.467Z,57.10
2023-06-16T23:36:19.682Z,56.90
2023-06-16T23:38:47.883Z,56.80
2023-06-16T23:41:21.628Z,56.70
2023-06-16T23:43:49.525Z,56.50
2023-06-16T23:46:36.396Z,56.50
2023-06-16T23:49:04.548Z,56.70
2023-06-16T23:51:47.496Z,56.90
2023-06-16T23:54:17.830Z,56.50
2023-06-16T23:56:45.853Z,56.80
2023-06-16T23:59:18.365Z,57.90
